Time;durP1;ratioP1;P1;durP2;ratioP2;P2;SDS_P1;SDS_P2;PMS_P1;PMS_P2;Temp;Humidity;BMP_temperature;BMP_pressure;BME280_temperature;BME280_humidity;BME280_pressure;Samples;Min_cycle;Max_cycle;Signal;HPM_P1;HPM_P2
2022/01/15 00:01:04;;;;;;;24.77;11.95;;;;;;;;;;5040552;28;20033;-81
2022/01/15 00:03:29;;;;;;;24.70;11.45;;;;;;;;;;5022964;28;20018;-78
2022/01/15 00:05:55;;;;;;;25.23;12.00;;;;;;;;;;5040066;28;20029;-80
2022/01/15 00:08:21;;;;;;;24.92;11.43;;;;;;;;;;5021975;28;20021;-78
2022/01/15 00:10:46;;;;;;;24.70;11.48;;;;;;;;;;5039835;28;20121;-79
2022/01/15 00:13:22;;;;;;;24.67;11.48;;;;;;;;;;5040039;28;20497;-79
2022/01/15 00:15:52;;;;;;;21.98;11.43;;;;;;;;;;5040002;28;20168;-79
2022/01/15 00:18:27;;;;;;;26.98;12.57;;;;;;;;;;5039219;28;20052;-79
2022/01/15 00:20:53;;;;;;;27.67;13.15;;;;;;;;;;5039472;28;20021;-80
2022/01/15 00:23:18;;;;;;;24.42;10.98;;;;;;;;;;5039628;28;20029;-80
2022/01/15 00:25:43;;;;;;;30.98;13.18;;;;;;;;;;5039431;28;20231;-79
2022/01/15 00:28:08;;;;;;;27.50;12.18;;;;;;;;;;5038673;28;20053;-81
2022/01/15 00:30:33;;;;;;;27.35;11.77;;;;;;;;;;5039484;28;20032;-80
2022/01/15 00:32:59;;;;;;;23.30;12.10;;;;;;;;;;5039991;28;20032;-79
2022/01/15 00:35:26;;;;;;;26.42;12.35;;;;;;;;;;5021480;28;20118;-79
2022/01/15 00:37:51;;;;;;;27.67;12.60;;;;;;;;;;5038781;28;20497;-80
2022/01/15 00:40:19;;;;;;;26.67;11.88;;;;;;;;;;5040174;28;20112;-80
2022/01/15 00:42:45;;;;;;;25.42;11.55;;;;;;;;;;5039876;28;20029;-81
2022/01/15 00:45:17;;;;;;;29.58;12.07;;;;;;;;;;5039858;28;20025;-80
2022/01/15 00:47:42;;;;;;;24.73;12.02;;;;;;;;;;5042127;28;20005;-80
2022/01/15 00:50:09;;;;;;;23.17;11.82;;;;;;;;;;5057780;28;20057;-81
2022/01/15 00:52:34;;;;;;;24.67;12.07;;;;;;;;;;5058629;28;20093;-80
2022/01/15 00:55:00;;;;;;;25.50;12.07;;;;;;;;;;5041852;28;20013;-79
2022/01/15 00:57:25;;;;;;;22.30;10.77;;;;;;;;;;5052272;28;20025;-81
2022/01/15 00:59:50;;;;;;;28.63;12.50;;;;;;;;;;5041261;28;20044;-81
2022/01/15 01:02:16;;;;;;;26.65;13.23;;;;;;;;;;5040172;28;20056;-80
2022/01/15 01:04:42;;;;;;;25.88;11.80;;;;;;;;;;5040365;28;20039;-79
2022/01/15 01:07:08;;;;;;;27.35;13.00;;;;;;;;;;5039581;28;20021;-79
2022/01/15 01:10:01;;;;;;;25.85;11.48;;;;;;;;;;5040073;28;20087;-80
2022/01/15 01:12:45;;;;;;;26.58;11.88;;;;;;;;;;5040380;28;20125;-82
2022/01/15 01:23:42;;;;;;;25.73;11.98;;;;;;;;;;5038311;28;20574;-81
2022/01/15 01:26:09;;;;;;;26.42;12.45;;;;;;;;;;5040314;28;20117;-80
2022/01/15 01:28:43;;;;;;;24.75;11.98;;;;;;;;;;5037751;28;20022;-80
2022/01/15 01:31:17;;;;;;;25.05;12.45;;;;;;;;;;5038811;28;20025;-80
2022/01/15 01:33:47;;;;;;;27.83;12.43;;;;;;;;;;5036105;28;20043;-79
2022/01/15 01:36:25;;;;;;;23.25;11.93;;;;;;;;;;5040521;28;20022;-82
2022/01/15 01:41:19;;;;;;;23.25;11.15;;;;;;;;;;5039148;28;20032;-81
2022/01/15 01:43:53;;;;;;;22.48;11.63;;;;;;;;;;5043456;28;20104;-80
2022/01/15 01:48:45;;;;;;;23.17;11.13;;;;;;;;;;5041294;28;20030;-81
2022/01/15 01:51:23;;;;;;;27.52;12.02;;;;;;;;;;5042510;28;20497;-78
2022/01/15 01:53:49;;;;;;;25.42;11.98;;;;;;;;;;5024151;28;20398;-80
2022/01/15 01:56:14;;;;;;;22.45;11.20;;;;;;;;;;5043631;28;20022;-81
2022/01/15 01:58:40;;;;;;;24.05;11.50;;;;;;;;;;5042752;28;20471;-81
2022/01/15 02:01:05;;;;;;;24.95;11.10;;;;;;;;;;5043669;28;20043;-81
2022/01/15 02:03:30;;;;;;;24.05;11.02;;;;;;;;;;5047284;28;20056;-81
2022/01/15 02:05:56;;;;;;;23.10;11.50;;;;;;;;;;5044238;28;20029;-81
2022/01/15 02:08:21;;;;;;;24.73;11.18;;;;;;;;;;5028360;28;20052;-79
2022/01/15 02:10:46;;;;;;;24.33;10.88;;;;;;;;;;5049486;28;20029;-80
2022/01/15 02:13:13;;;;;;;25.75;11.88;;;;;;;;;;5044917;28;20030;-79
2022/01/15 02:15:38;;;;;;;21.98;10.82;;;;;;;;;;5043108;28;20039;-79
2022/01/15 02:18:03;;;;;;;22.35;10.52;;;;;;;;;;5040425;28;20105;-79
2022/01/15 02:25:49;;;;;;;23.63;10.60;;;;;;;;;;5040701;28;20032;-79
2022/01/15 02:28:17;;;;;;;22.08;10.73;;;;;;;;;;5023807;28;20444;-79
2022/01/15 02:30:43;;;;;;;22.95;11.10;;;;;;;;;;5041704;28;20033;-82
2022/01/15 02:33:08;;;;;;;19.92;10.38;;;;;;;;;;5039840;28;20021;-80
2022/01/15 02:35:34;;;;;;;23.10;10.43;;;;;;;;;;5037729;28;20029;-78
2022/01/15 02:38:08;;;;;;;26.52;10.88;;;;;;;;;;5040744;28;20068;-80
2022/01/15 02:40:36;;;;;;;25.95;10.10;;;;;;;;;;5039358;28;20371;-80
2022/01/15 02:43:31;;;;;;;20.80;9.43;;;;;;;;;;5037632;28;20036;-80
2022/01/15 02:46:00;;;;;;;16.55;7.60;;;;;;;;;;5018946;28;20429;-79
2022/01/15 02:48:28;;;;;;;18.58;9.15;;;;;;;;;;5038159;28;20069;-79
2022/01/15 02:50:55;;;;;;;18.02;9.23;;;;;;;;;;5037941;28;20056;-78
2022/01/15 02:53:21;;;;;;;19.10;9.60;;;;;;;;;;5037813;28;20053;-79
2022/01/15 02:55:49;;;;;;;19.05;9.63;;;;;;;;;;5038073;28;20030;-79
2022/01/15 02:58:16;;;;;;;20.90;9.57;;;;;;;;;;5036730;28;20564;-80
2022/01/15 03:00:41;;;;;;;18.73;7.72;;;;;;;;;;5036566;28;20503;-79
2022/01/15 03:03:07;;;;;;;15.55;8.10;;;;;;;;;;5037543;28;20092;-78
2022/01/15 03:05:32;;;;;;;19.65;8.00;;;;;;;;;;5038716;28;20026;-80
2022/01/15 03:07:57;;;;;;;15.38;7.53;;;;;;;;;;5037796;28;20567;-79
2022/01/15 03:10:23;;;;;;;15.35;7.75;;;;;;;;;;5038198;28;20029;-79
2022/01/15 03:12:48;;;;;;;19.80;8.15;;;;;;;;;;5059861;28;20078;-79
2022/01/15 03:15:19;;;;;;;17.58;8.25;;;;;;;;;;5060444;28;20052;-79
2022/01/15 03:17:45;;;;;;;15.38;6.80;;;;;;;;;;5060499;28;20040;-80
2022/01/15 03:20:12;;;;;;;18.13;7.68;;;;;;;;;;5043772;28;20034;-78
2022/01/15 03:22:37;;;;;;;13.13;7.50;;;;;;;;;;5037217;28;20037;-78
2022/01/15 03:25:03;;;;;;;15.32;7.07;;;;;;;;;;5037081;28;20037;-79
2022/01/15 03:27:28;;;;;;;18.13;7.40;;;;;;;;;;5036972;28;20022;-79
2022/01/15 03:29:54;;;;;;;19.10;7.18;;;;;;;;;;5037808;28;20047;-79
2022/01/15 03:32:20;;;;;;;19.38;7.55;;;;;;;;;;5037323;28;20026;-80
2022/01/15 03:34:46;;;;;;;17.42;7.32;;;;;;;;;;5037290;28;20029;-80
2022/01/15 03:37:12;;;;;;;17.88;6.88;;;;;;;;;;5020951;28;20017;-78
2022/01/15 03:39:38;;;;;;;14.57;6.97;;;;;;;;;;5038460;28;20093;-80
2022/01/15 03:42:10;;;;;;;15.38;6.32;;;;;;;;;;5020532;28;20526;-77
2022/01/15 03:44:36;;;;;;;15.60;7.07;;;;;;;;;;5038782;28;20032;-80
2022/01/15 03:47:01;;;;;;;16.23;7.65;;;;;;;;;;5038491;28;20441;-79
2022/01/15 03:49:26;;;;;;;19.80;6.75;;;;;;;;;;5037970;28;20452;-82
2022/01/15 03:51:51;;;;;;;17.42;7.10;;;;;;;;;;5039353;28;20025;-79
2022/01/15 03:54:17;;;;;;;16.35;7.15;;;;;;;;;;5038941;28;20028;-79
2022/01/15 03:56:42;;;;;;;17.20;7.82;;;;;;;;;;5038377;28;20021;-78
2022/01/15 03:59:07;;;;;;;16.50;7.40;;;;;;;;;;5036935;28;20049;-80
2022/01/15 04:01:32;;;;;;;15.95;6.70;;;;;;;;;;5037328;28;20025;-80
2022/01/15 04:03:58;;;;;;;16.05;6.30;;;;;;;;;;5037251;28;20026;-79
2022/01/15 04:06:23;;;;;;;14.40;7.05;;;;;;;;;;5038736;28;20036;-80
2022/01/15 04:08:48;;;;;;;19.42;7.43;;;;;;;;;;5038098;28;20021;-78
2022/01/15 04:11:13;;;;;;;20.30;7.53;;;;;;;;;;5037814;28;20028;-79
2022/01/15 04:13:38;;;;;;;17.33;7.05;;;;;;;;;;5038476;28;20029;-80
2022/01/15 04:16:04;;;;;;;17.33;6.72;;;;;;;;;;5038161;28;20106;-80
2022/01/15 04:18:36;;;;;;;17.80;7.20;;;;;;;;;;5038391;28;20022;-79
2022/01/15 04:21:01;;;;;;;15.43;6.05;;;;;;;;;;5038806;28;20033;-79
2022/01/15 04:23:26;;;;;;;18.63;6.88;;;;;;;;;;5020718;28;20375;-79
2022/01/15 04:25:52;;;;;;;16.35;6.68;;;;;;;;;;5038277;28;20440;-80
2022/01/15 04:28:17;;;;;;;10.98;5.57;;;;;;;;;;5038725;28;20370;-79
2022/01/15 04:30:47;;;;;;;22.02;6.35;;;;;;;;;;5038525;28;20047;-79
2022/01/15 04:33:12;;;;;;;16.80;6.00;;;;;;;;;;5038618;28;20053;-79
2022/01/15 04:35:37;;;;;;;19.58;5.47;;;;;;;;;;5038087;28;20025;-80
2022/01/15 04:38:07;;;;;;;9.27;4.38;;;;;;;;;;5038582;28;20036;-80
2022/01/15 04:40:33;;;;;;;19.33;5.57;;;;;;;;;;5038902;28;20025;-80
2022/01/15 04:42:58;;;;;;;17.35;5.38;;;;;;;;;;5038695;28;20032;-79
2022/01/15 04:45:23;;;;;;;12.65;5.45;;;;;;;;;;5038462;28;20055;-79
2022/01/15 04:47:48;;;;;;;18.13;5.00;;;;;;;;;;5037999;28;20029;-79
2022/01/15 04:50:22;;;;;;;16.13;5.07;;;;;;;;;;5038584;28;20025;-79
2022/01/15 04:52:47;;;;;;;14.60;4.68;;;;;;;;;;5038677;28;20104;-79
2022/01/15 04:55:13;;;;;;;16.30;4.47;;;;;;;;;;5038205;28;20084;-78
2022/01/15 04:57:40;;;;;;;15.57;4.85;;;;;;;;;;5038927;28;20026;-80
2022/01/15 05:00:09;;;;;;;12.25;4.22;;;;;;;;;;5038021;28;20033;-79
2022/01/15 05:02:35;;;;;;;16.45;4.85;;;;;;;;;;5037874;28;20030;-79
2022/01/15 05:05:00;;;;;;;17.23;4.95;;;;;;;;;;5037940;28;20022;-79
2022/01/15 05:07:26;;;;;;;19.17;4.70;;;;;;;;;;5037996;28;20033;-77
2022/01/15 05:09:51;;;;;;;13.73;4.47;;;;;;;;;;5038372;28;20025;-80
2022/01/15 05:12:28;;;;;;;15.93;5.22;;;;;;;;;;5037925;28;20026;-80
2022/01/15 05:14:53;;;;;;;15.38;4.13;;;;;;;;;;5039390;28;20025;-80
2022/01/15 05:17:19;;;;;;;15.88;4.78;;;;;;;;;;5040684;28;20025;-79
2022/01/15 05:19:44;;;;;;;13.98;4.35;;;;;;;;;;5042366;28;20025;-79
2022/01/15 05:22:09;;;;;;;15.35;4.65;;;;;;;;;;5042231;28;20040;-78
2022/01/15 05:24:34;;;;;;;17.33;4.57;;;;;;;;;;5042298;28;20032;-79
2022/01/15 05:27:00;;;;;;;12.88;3.75;;;;;;;;;;5041662;28;20105;-78
2022/01/15 05:29:25;;;;;;;18.27;4.65;;;;;;;;;;5023650;28;20025;-79
2022/01/15 05:31:50;;;;;;;13.77;4.22;;;;;;;;;;5042148;28;20093;-80
2022/01/15 05:34:16;;;;;;;16.88;4.60;;;;;;;;;;5052025;28;20013;-79
2022/01/15 05:36:41;;;;;;;19.35;4.85;;;;;;;;;;5061741;28;20013;-79
2022/01/15 05:39:07;;;;;;;13.02;4.70;;;;;;;;;;5062407;28;20036;-79
2022/01/15 05:41:33;;;;;;;14.90;4.35;;;;;;;;;;5062238;28;20025;-79
2022/01/15 05:44:02;;;;;;;16.67;4.63;;;;;;;;;;5043790;28;20033;-79
2022/01/15 05:46:32;;;;;;;18.55;5.25;;;;;;;;;;5039679;28;20124;-78
2022/01/15 05:48:58;;;;;;;16.60;4.43;;;;;;;;;;5022498;28;20033;-78
2022/01/15 05:51:23;;;;;;;19.85;4.95;;;;;;;;;;5040543;28;20368;-81
2022/01/15 05:53:48;;;;;;;14.63;4.85;;;;;;;;;;5040655;28;20032;-80
2022/01/15 05:56:14;;;;;;;14.70;5.03;;;;;;;;;;5041276;28;20022;-78
2022/01/15 05:58:39;;;;;;;19.65;4.72;;;;;;;;;;5042607;28;20026;-79
2022/01/15 06:01:04;;;;;;;22.30;5.32;;;;;;;;;;5025134;28;20112;-80
2022/01/15 06:03:29;;;;;;;22.27;5.18;;;;;;;;;;5043144;28;20479;-80
2022/01/15 06:05:55;;;;;;;14.95;4.47;;;;;;;;;;5044874;28;20025;-79
2022/01/15 06:08:20;;;;;;;15.55;4.35;;;;;;;;;;5044168;28;20390;-79
2022/01/15 06:10:45;;;;;;;18.50;4.32;;;;;;;;;;5045205;28;20513;-81
2022/01/15 06:13:13;;;;;;;18.10;5.07;;;;;;;;;;5027092;28;20044;-82
2022/01/15 06:15:39;;;;;;;13.70;4.35;;;;;;;;;;5044982;28;20038;-80
2022/01/15 06:18:04;;;;;;;15.88;4.35;;;;;;;;;;5045046;28;20025;-80
2022/01/15 06:20:29;;;;;;;16.05;4.50;;;;;;;;;;5042944;28;20077;-81
2022/01/15 06:22:55;;;;;;;20.08;5.05;;;;;;;;;;5044996;28;20021;-81
2022/01/15 06:25:20;;;;;;;15.75;4.43;;;;;;;;;;5045140;28;20030;-81
2022/01/15 06:27:45;;;;;;;11.95;4.20;;;;;;;;;;5046955;28;20045;-80
2022/01/15 06:30:11;;;;;;;20.38;5.07;;;;;;;;;;5043862;28;20402;-80
2022/01/15 06:32:36;;;;;;;22.23;4.15;;;;;;;;;;5041605;28;20394;-79
2022/01/15 06:35:13;;;;;;;14.18;4.40;;;;;;;;;;5042332;28;20033;-79
2022/01/15 06:37:39;;;;;;;17.17;4.75;;;;;;;;;;5041251;28;20017;-80
2022/01/15 06:40:05;;;;;;;19.48;4.65;;;;;;;;;;5040991;28;20032;-78
2022/01/15 06:42:31;;;;;;;20.02;5.32;;;;;;;;;;5045082;28;20095;-81
2022/01/15 06:44:56;;;;;;;23.20;5.05;;;;;;;;;;5047488;28;20469;-81
2022/01/15 06:47:22;;;;;;;21.67;5.20;;;;;;;;;;5045765;28;20025;-80
2022/01/15 06:49:47;;;;;;;12.98;4.65;;;;;;;;;;5046287;28;20021;-80
2022/01/15 06:52:12;;;;;;;17.63;5.35;;;;;;;;;;5046643;28;20026;-81
2022/01/15 06:54:38;;;;;;;20.25;5.72;;;;;;;;;;5046829;28;20128;-81
2022/01/15 06:57:03;;;;;;;14.80;5.45;;;;;;;;;;5046554;28;20037;-81
2022/01/15 06:59:28;;;;;;;17.33;5.43;;;;;;;;;;5029343;28;20049;-81
2022/01/15 07:01:54;;;;;;;14.88;5.07;;;;;;;;;;5046488;28;20071;-81
2022/01/15 07:04:19;;;;;;;20.42;5.55;;;;;;;;;;5045790;28;20033;-81
2022/01/15 07:06:44;;;;;;;12.23;5.70;;;;;;;;;;5045067;28;20027;-81
2022/01/15 07:09:09;;;;;;;22.80;6.38;;;;;;;;;;5051447;28;20036;-82
2022/01/15 07:11:35;;;;;;;19.52;5.82;;;;;;;;;;5046348;28;20021;-80
2022/01/15 07:14:00;;;;;;;16.65;6.45;;;;;;;;;;5046203;28;20033;-81
2022/01/15 07:16:25;;;;;;;25.00;7.03;;;;;;;;;;5046084;28;20033;-81
2022/01/15 07:18:51;;;;;;;21.33;6.00;;;;;;;;;;5047825;28;20048;-80
2022/01/15 07:21:16;;;;;;;18.08;6.35;;;;;;;;;;5028397;28;20449;-81
2022/01/15 07:23:41;;;;;;;25.38;7.00;;;;;;;;;;5046353;28;20052;-81
2022/01/15 07:26:06;;;;;;;23.52;6.93;;;;;;;;;;5047203;28;20465;-80
2022/01/15 07:28:32;;;;;;;23.67;6.70;;;;;;;;;;5050234;28;20030;-80
2022/01/15 07:30:58;;;;;;;20.92;6.78;;;;;;;;;;5043084;28;20021;-79
2022/01/15 07:33:23;;;;;;;25.27;7.60;;;;;;;;;;5045628;28;20036;-79
2022/01/15 07:35:49;;;;;;;19.02;6.50;;;;;;;;;;5044175;28;20025;-80
2022/01/15 07:38:17;;;;;;;21.80;7.38;;;;;;;;;;5046632;28;20017;-81
2022/01/15 07:40:42;;;;;;;19.60;6.95;;;;;;;;;;5048853;28;20029;-82
2022/01/15 07:43:08;;;;;;;20.13;6.43;;;;;;;;;;5044384;28;20036;-81
2022/01/15 07:45:33;;;;;;;21.13;6.38;;;;;;;;;;5044275;28;20029;-80
2022/01/15 07:47:58;;;;;;;19.85;6.55;;;;;;;;;;5044462;28;20030;-80
2022/01/15 07:50:24;;;;;;;24.98;7.10;;;;;;;;;;5027982;28;20061;-81
2022/01/15 07:52:53;;;;;;;22.55;7.22;;;;;;;;;;5044908;28;20025;-81
2022/01/15 07:55:19;;;;;;;26.92;7.32;;;;;;;;;;5045722;28;20051;-81
2022/01/15 07:57:45;;;;;;;21.25;7.07;;;;;;;;;;5044483;28;20430;-80
2022/01/15 08:00:12;;;;;;;17.40;7.20;;;;;;;;;;5053969;28;20029;-80
2022/01/15 08:02:37;;;;;;;25.75;7.65;;;;;;;;;;5056453;28;20490;-79
2022/01/15 08:05:02;;;;;;;24.38;7.57;;;;;;;;;;5059566;28;20017;-79
2022/01/15 08:07:28;;;;;;;23.20;6.93;;;;;;;;;;5059086;28;20026;-79
2022/01/15 08:09:53;;;;;;;25.10;7.30;;;;;;;;;;5037841;28;20056;-79
2022/01/15 08:12:22;;;;;;;21.52;7.68;;;;;;;;;;5023316;28;20056;-81
2022/01/15 08:14:55;;;;;;;20.38;7.05;;;;;;;;;;5045474;28;20025;-80
2022/01/15 08:17:20;;;;;;;25.23;7.60;;;;;;;;;;5040298;28;20018;-79
2022/01/15 08:19:48;;;;;;;21.60;7.57;;;;;;;;;;5039315;28;20079;-80
2022/01/15 08:22:14;;;;;;;29.60;8.07;;;;;;;;;;5041948;28;20089;-79
2022/01/15 08:24:39;;;;;;;21.30;7.72;;;;;;;;;;5040418;28;20446;-81
2022/01/15 08:27:04;;;;;;;27.42;7.43;;;;;;;;;;5021632;28;20048;-78
2022/01/15 08:29:30;;;;;;;31.52;7.72;;;;;;;;;;5026700;28;20009;-79
2022/01/15 08:31:56;;;;;;;20.20;7.28;;;;;;;;;;5042936;28;20040;-80
2022/01/15 08:34:21;;;;;;;23.50;7.70;;;;;;;;;;5045276;28;20025;-80
2022/01/15 08:36:47;;;;;;;22.45;7.97;;;;;;;;;;5047327;28;20367;-80
2022/01/15 08:39:12;;;;;;;22.05;7.38;;;;;;;;;;5044070;28;20048;-80
2022/01/15 08:41:37;;;;;;;27.92;6.68;;;;;;;;;;5046170;28;20025;-81
2022/01/15 08:44:05;;;;;;;23.85;6.55;;;;;;;;;;5045699;28;20028;-81
2022/01/15 08:46:31;;;;;;;17.48;6.05;;;;;;;;;;5049907;28;20029;-82
2022/01/15 08:48:56;;;;;;;19.35;6.47;;;;;;;;;;5028211;28;20026;-81
2022/01/15 08:51:22;;;;;;;15.65;6.15;;;;;;;;;;5029105;28;20025;-80
2022/01/15 08:53:47;;;;;;;22.45;6.65;;;;;;;;;;5028507;28;20461;-80
2022/01/15 08:56:20;;;;;;;18.35;6.30;;;;;;;;;;5045802;28;20025;-82
2022/01/15 08:58:48;;;;;;;19.25;5.95;;;;;;;;;;5029655;28;20025;-82
2022/01/15 09:01:13;;;;;;;16.85;4.90;;;;;;;;;;5045482;28;20080;-81
2022/01/15 09:03:40;;;;;;;26.67;5.15;;;;;;;;;;5047544;28;20029;-81
2022/01/15 09:06:06;;;;;;;17.20;5.85;;;;;;;;;;5033202;28;20538;-83
2022/01/15 09:08:31;;;;;;;18.92;5.55;;;;;;;;;;5044814;28;20037;-81
2022/01/15 09:10:57;;;;;;;17.58;5.47;;;;;;;;;;5044778;28;20021;-82
2022/01/15 09:13:29;;;;;;;22.55;5.28;;;;;;;;;;5028934;28;20097;-81
2022/01/15 09:15:54;;;;;;;23.85;5.75;;;;;;;;;;5046984;28;20080;-82
2022/01/15 09:18:20;;;;;;;19.02;5.03;;;;;;;;;;5027600;28;20021;-81
2022/01/15 09:20:48;;;;;;;21.63;4.97;;;;;;;;;;5046294;28;20025;-81
2022/01/15 09:23:14;;;;;;;17.15;4.75;;;;;;;;;;5046207;28;20088;-82
2022/01/15 09:25:45;;;;;;;16.05;4.57;;;;;;;;;;5029814;28;20079;-82
2022/01/15 09:30:55;;;;;;;17.50;4.25;;;;;;;;;;5045796;28;20068;-81
2022/01/15 09:33:21;;;;;;;13.75;3.80;;;;;;;;;;5045538;28;20041;-82
2022/01/15 09:35:46;;;;;;;17.17;4.47;;;;;;;;;;5047593;28;20029;-82
2022/01/15 09:38:15;;;;;;;19.50;4.13;;;;;;;;;;5047591;28;20618;-82
2022/01/15 09:40:41;;;;;;;14.60;3.92;;;;;;;;;;5051695;28;20036;-81
2022/01/15 09:43:06;;;;;;;18.42;3.08;;;;;;;;;;5046928;28;20025;-80
2022/01/15 09:45:35;;;;;;;16.45;3.80;;;;;;;;;;5044714;28;20032;-82
2022/01/15 09:48:03;;;;;;;17.20;3.72;;;;;;;;;;5045349;28;20071;-81
2022/01/15 09:50:31;;;;;;;14.07;3.65;;;;;;;;;;5027555;28;20017;-81
2022/01/15 09:52:57;;;;;;;27.98;4.85;;;;;;;;;;5044730;28;20049;-81
2022/01/15 09:55:23;;;;;;;16.52;3.35;;;;;;;;;;5045941;28;20033;-81
2022/01/15 09:57:49;;;;;;;17.75;3.28;;;;;;;;;;5027100;28;20013;-81
2022/01/15 10:00:17;;;;;;;19.65;3.78;;;;;;;;;;5046145;28;20035;-81
2022/01/15 10:02:44;;;;;;;21.85;4.20;;;;;;;;;;5051024;28;20026;-80
2022/01/15 10:05:11;;;;;;;21.40;3.70;;;;;;;;;;5061600;28;20024;-79
2022/01/15 10:07:36;;;;;;;23.63;3.95;;;;;;;;;;5061281;28;20026;-79
2022/01/15 10:10:16;;;;;;;19.27;3.95;;;;;;;;;;5061590;28;20018;-79
2022/01/15 10:12:43;;;;;;;17.33;3.50;;;;;;;;;;5059084;28;20033;-80
2022/01/15 10:15:10;;;;;;;23.40;3.70;;;;;;;;;;5045982;28;20056;-83
2022/01/15 10:17:38;;;;;;;16.42;3.20;;;;;;;;;;5030697;28;20021;-81
2022/01/15 10:20:09;;;;;;;18.88;3.08;;;;;;;;;;5029272;28;20076;-81
2022/01/15 10:22:39;;;;;;;21.67;2.97;;;;;;;;;;5043667;28;20068;-78
2022/01/15 10:25:19;;;;;;;17.38;3.10;;;;;;;;;;5044365;28;20088;-82
2022/01/15 10:27:55;;;;;;;15.68;3.13;;;;;;;;;;5044532;28;20018;-80
2022/01/15 10:30:20;;;;;;;12.00;2.75;;;;;;;;;;5027026;28;20037;-80
2022/01/15 10:33:18;;;;;;;15.30;2.97;;;;;;;;;;5045559;28;20021;-81
2022/01/15 10:35:45;;;;;;;12.18;2.30;;;;;;;;;;5025050;28;20068;-81
2022/01/15 10:38:14;;;;;;;19.77;2.50;;;;;;;;;;5046307;28;20027;-81
2022/01/15 10:40:45;;;;;;;19.20;2.80;;;;;;;;;;5045362;28;20044;-79
2022/01/15 10:43:17;;;;;;;16.80;3.15;;;;;;;;;;5045013;28;20060;-82
2022/01/15 10:45:53;;;;;;;15.90;2.65;;;;;;;;;;5045822;28;20383;-80
2022/01/15 10:48:31;;;;;;;20.13;2.47;;;;;;;;;;5028553;28;20025;-82
2022/01/15 10:50:56;;;;;;;11.77;2.08;;;;;;;;;;5045982;28;20085;-81
2022/01/15 10:53:43;;;;;;;15.27;2.22;;;;;;;;;;5046081;28;20036;-81
2022/01/15 10:56:11;;;;;;;16.80;2.47;;;;;;;;;;5045491;28;20478;-82
2022/01/15 10:58:37;;;;;;;17.67;2.42;;;;;;;;;;5047059;28;20063;-81
2022/01/15 11:01:04;;;;;;;14.43;2.70;;;;;;;;;;5046305;28;20032;-84
2022/01/15 11:03:41;;;;;;;22.13;2.10;;;;;;;;;;5027679;28;20124;-82
2022/01/15 11:06:06;;;;;;;16.42;2.33;;;;;;;;;;5044441;28;20029;-81
2022/01/15 11:08:37;;;;;;;14.02;2.10;;;;;;;;;;5044113;28;20025;-80
2022/01/15 11:11:05;;;;;;;15.70;2.45;;;;;;;;;;5041451;28;20410;-79
2022/01/15 11:13:33;;;;;;;13.35;2.30;;;;;;;;;;5041666;28;20025;-83
2022/01/15 11:16:05;;;;;;;14.25;2.33;;;;;;;;;;5041518;28;20025;-79
2022/01/15 11:18:37;;;;;;;19.27;2.63;;;;;;;;;;5042613;28;20029;-81
2022/01/15 11:21:06;;;;;;;20.95;2.63;;;;;;;;;;5042557;28;20030;-80
2022/01/15 11:23:33;;;;;;;13.95;2.30;;;;;;;;;;5042763;28;20057;-81
2022/01/15 11:26:05;;;;;;;14.73;2.58;;;;;;;;;;5042075;28;20030;-83
2022/01/15 11:28:33;;;;;;;16.52;2.58;;;;;;;;;;5043221;28;20022;-81
2022/01/15 11:31:06;;;;;;;18.25;2.53;;;;;;;;;;5044167;28;20105;-81
2022/01/15 11:33:33;;;;;;;23.83;3.00;;;;;;;;;;5043356;28;20029;-80
2022/01/15 11:35:59;;;;;;;17.75;2.63;;;;;;;;;;5042655;28;20028;-80
2022/01/15 11:38:46;;;;;;;14.55;2.35;;;;;;;;;;5042039;28;20025;-80
2022/01/15 11:41:26;;;;;;;21.83;2.88;;;;;;;;;;5043611;28;20026;-80
2022/01/15 11:44:02;;;;;;;16.85;3.05;;;;;;;;;;5042457;28;20108;-81
2022/01/15 11:46:41;;;;;;;13.38;2.50;;;;;;;;;;5043228;28;20029;-79
2022/01/15 11:49:36;;;;;;;12.95;2.03;;;;;;;;;;5042020;28;20382;-79
2022/01/15 11:52:04;;;;;;;15.57;2.58;;;;;;;;;;5038993;28;20107;-81
2022/01/15 11:54:29;;;;;;;14.85;2.10;;;;;;;;;;5041652;28;20071;-80
2022/01/15 11:56:55;;;;;;;11.85;1.88;;;;;;;;;;5042244;28;20021;-81
2022/01/15 11:59:25;;;;;;;10.15;2.03;;;;;;;;;;5043757;28;20021;-80
2022/01/15 12:02:01;;;;;;;14.95;2.15;;;;;;;;;;5024983;28;20033;-80
2022/01/15 12:04:31;;;;;;;12.98;2.20;;;;;;;;;;5025133;28;20089;-80
2022/01/15 12:07:03;;;;;;;18.33;2.22;;;;;;;;;;5050631;28;20014;-79
2022/01/15 12:09:34;;;;;;;14.65;2.78;;;;;;;;;;5044360;28;20029;-80
2022/01/15 12:12:01;;;;;;;16.48;2.30;;;;;;;;;;5043329;28;20033;-81
2022/01/15 12:14:48;;;;;;;16.45;2.78;;;;;;;;;;5024107;28;20052;-81
2022/01/15 12:17:25;;;;;;;21.55;2.67;;;;;;;;;;5041945;28;20112;-81
2022/01/15 12:19:51;;;;;;;15.20;2.40;;;;;;;;;;5041825;28;20029;-81
2022/01/15 12:22:36;;;;;;;20.38;2.53;;;;;;;;;;5042550;28;20022;-81
2022/01/15 12:25:04;;;;;;;16.42;2.65;;;;;;;;;;5042817;28;20017;-80
2022/01/15 12:27:31;;;;;;;11.32;1.95;;;;;;;;;;5042313;28;20403;-80
2022/01/15 12:30:13;;;;;;;17.00;2.20;;;;;;;;;;5042050;28;20087;-81
2022/01/15 12:32:42;;;;;;;12.23;2.25;;;;;;;;;;5042462;28;20032;-81
2022/01/15 12:35:16;;;;;;;13.05;2.20;;;;;;;;;;5041301;28;20097;-80
2022/01/15 12:37:56;;;;;;;18.23;2.60;;;;;;;;;;5040639;28;20024;-81
2022/01/15 12:40:34;;;;;;;10.27;2.20;;;;;;;;;;5039335;28;20574;-80
2022/01/15 12:43:05;;;;;;;16.42;2.45;;;;;;;;;;5041007;28;20037;-81
2022/01/15 12:45:31;;;;;;;19.70;2.42;;;;;;;;;;5042149;28;20025;-81
2022/01/15 12:47:57;;;;;;;15.23;2.58;;;;;;;;;;5040870;28;20030;-80
2022/01/15 12:50:24;;;;;;;12.65;2.42;;;;;;;;;;5039777;28;20501;-81
2022/01/15 12:53:01;;;;;;;17.67;2.20;;;;;;;;;;5040856;28;20041;-79
2022/01/15 12:55:35;;;;;;;14.57;2.85;;;;;;;;;;5040793;28;20040;-79
2022/01/15 12:58:03;;;;;;;17.17;2.55;;;;;;;;;;5041257;28;20440;-79
2022/01/15 13:00:31;;;;;;;12.15;2.47;;;;;;;;;;5040681;28;20075;-80
2022/01/15 13:02:59;;;;;;;12.60;2.67;;;;;;;;;;5041378;28;20033;-79
2022/01/15 13:05:27;;;;;;;8.98;2.72;;;;;;;;;;5040636;28;20433;-80
2022/01/15 13:08:01;;;;;;;16.50;2.42;;;;;;;;;;5041072;28;20164;-80
2022/01/15 13:10:31;;;;;;;;;;;;;;;;;;5042174;28;20029;-82
2022/01/15 13:12:57;;;;;;;21.50;2.53;;;;;;;;;;5042092;28;20398;-81
2022/01/15 13:15:27;;;;;;;13.80;2.30;;;;;;;;;;5042256;28;20056;-81
2022/01/15 13:17:53;;;;;;;12.13;1.90;;;;;;;;;;5041443;28;20049;-79
2022/01/15 13:20:33;;;;;;;15.05;2.78;;;;;;;;;;5037649;28;20032;-82
2022/01/15 13:22:59;;;;;;;10.77;2.00;;;;;;;;;;5036915;28;20068;-80
2022/01/15 13:25:26;;;;;;;17.60;2.45;;;;;;;;;;5039012;28;20029;-81
2022/01/15 13:27:53;;;;;;;12.77;2.10;;;;;;;;;;5025192;28;20075;-80
2022/01/15 13:30:20;;;;;;;11.15;2.10;;;;;;;;;;5047880;28;20025;-80
2022/01/15 13:33:06;;;;;;;16.05;2.45;;;;;;;;;;5051234;28;20067;-79
2022/01/15 13:35:42;;;;;;;13.18;2.25;;;;;;;;;;5044621;28;20017;-80
2022/01/15 13:38:10;;;;;;;15.10;2.17;;;;;;;;;;5052542;28;20031;-81
2022/01/15 13:40:37;;;;;;;13.18;2.17;;;;;;;;;;5052668;28;20093;-80
2022/01/15 13:43:05;;;;;;;12.27;2.10;;;;;;;;;;5046466;28;20053;-78
2022/01/15 13:45:32;;;;;;;15.00;1.98;;;;;;;;;;5045604;28;20025;-79
2022/01/15 13:48:30;;;;;;;13.45;2.40;;;;;;;;;;5025371;28;20026;-80
2022/01/15 13:53:47;;;;;;;;;;;;;;;;;;5045587;28;20032;-81
2022/01/15 13:56:25;;;;;;;9.90;1.65;;;;;;;;;;5042857;28;19980;-80
2022/01/15 13:58:54;;;;;;;17.83;3.13;;;;;;;;;;5043833;28;20027;-80
2022/01/15 14:01:23;;;;;;;7.13;1.98;;;;;;;;;;5026096;28;20054;-80
2022/01/15 14:03:49;;;;;;;13.00;2.30;;;;;;;;;;5044082;28;20451;-80
2022/01/15 14:06:14;;;;;;;16.45;3.00;;;;;;;;;;5044021;28;20033;-81
2022/01/15 14:08:40;;;;;;;12.82;2.75;;;;;;;;;;5047299;28;20525;-82
2022/01/15 14:11:16;;;;;;;11.82;2.08;;;;;;;;;;5050203;28;20025;-80
2022/01/15 14:13:42;;;;;;;18.60;3.35;;;;;;;;;;5048418;28;20045;-80
2022/01/15 14:16:33;;;;;;;13.35;2.25;;;;;;;;;;5051287;28;20029;-79
2022/01/15 14:19:24;;;;;;;14.05;2.38;;;;;;;;;;5051527;28;20514;-82
2022/01/15 14:21:52;;;;;;;11.68;2.28;;;;;;;;;;5052680;28;20057;-80
2022/01/15 14:24:24;;;;;;;11.90;2.25;;;;;;;;;;5049910;28;20025;-82
2022/01/15 14:26:56;;;;;;;17.13;3.03;;;;;;;;;;5050178;28;20555;-79
2022/01/15 14:29:21;;;;;;;13.90;1.90;;;;;;;;;;5027670;28;20052;-81
2022/01/15 14:31:46;;;;;;;13.60;2.10;;;;;;;;;;5043704;28;20025;-80
2022/01/15 14:34:12;;;;;;;11.27;2.60;;;;;;;;;;5045171;28;20120;-79
2022/01/15 14:36:37;;;;;;;11.90;2.40;;;;;;;;;;5044853;28;20021;-80
2022/01/15 14:39:04;;;;;;;11.45;2.53;;;;;;;;;;5044620;28;20032;-80
2022/01/15 14:41:34;;;;;;;13.32;2.80;;;;;;;;;;5045191;28;20105;-80
2022/01/15 14:44:00;;;;;;;13.05;2.10;;;;;;;;;;5028390;28;20156;-81
2022/01/15 14:46:25;;;;;;;12.55;2.53;;;;;;;;;;5044662;28;20037;-80
2022/01/15 14:48:50;;;;;;;9.98;2.17;;;;;;;;;;5045658;28;20028;-80
2022/01/15 14:51:16;;;;;;;20.63;2.72;;;;;;;;;;5046023;28;20073;-82
2022/01/15 14:53:43;;;;;;;14.27;2.75;;;;;;;;;;5044511;28;20021;-80
2022/01/15 14:56:09;;;;;;;11.35;2.55;;;;;;;;;;5044630;28;20111;-79
2022/01/15 14:58:34;;;;;;;10.00;2.60;;;;;;;;;;5045197;28;20029;-79